readforgreed.com alexa rank chart, readforgreed.com alexa rank daily changes

readforgreed.com alexa rank chart, readforgreed.com alexa rank daily changes

readforgreed.com
Actual rank:
416 014

RANK HISTORY

Date Rank Diff
2016/12/04 416 014 +3 863
2016/12/02 412 151 +483
2016/12/01 411 668 +12 494
2016/11/30 399 174 +3 835
2016/11/29 395 339 -8 032
2016/11/28 403 371 -27 838
2016/11/27 431 209 +6 286
2016/11/26 424 923 -846
2016/11/25 425 769 +12 625
2016/11/24 413 144 -178
2016/11/23 413 322 +73 318
2016/11/19 340 004 +11 239
2016/11/18 328 765 +22 109
2016/11/17 306 656 +4 914
2016/11/16 301 742 +4 757
2016/11/15 296 985 +3 160
2016/11/14 293 825 +24 512
2016/11/13 269 313 +5 195
2016/11/12 264 118 +573
2016/11/11 263 545 +6 863
2016/11/10 256 682 +2 065
2016/11/09 254 617 +85
2016/11/08 254 532 -410
2016/11/07 254 942 -6 593
2016/11/06 261 535 +4 194
2016/11/05 257 341 +11 129
2016/11/04 246 212 +2 012
2016/11/03 244 200 +10 242
2016/11/02 233 958 +4 899
2016/11/01 229 059 +172
2016/10/31 228 887 +5 324
2016/10/30 223 563 +6 802
2016/10/29 216 761 +2 087
2016/10/28 214 674 +8 856
2016/10/27 205 818 +3 549
2016/10/26 202 269 +6 109
2016/10/25 196 160 +6 676
2016/10/24 189 484 +5 841
2016/10/23 183 643 +2 349
2016/10/22 181 294 +5 141
2016/10/21 176 153 +2 846
2016/10/20 173 307 -9 221
2016/10/19 182 528 +1 548
2016/10/18 180 980 -4 989
2016/10/17 185 969 +3 253
2016/10/16 182 716 +74
2016/10/15 182 642 +4 899
2016/10/14 177 743 -1 523
2016/10/13 179 266 -4 329
2016/10/12 183 595 -2 447
2016/10/11 186 042 -3 583
2016/10/10 189 625 -1 655
2016/10/09 191 280 +3 079
2016/10/08 188 201 +6 945
2016/10/07 181 256 -6 249
2016/10/06 187 505 +10 329
2016/10/05 177 176

WIDGET FOR YOUR SITE

DOMAINS WITH THE NEAREST RANK

Domain Rank
thainguyen.edu.vn 416 009
directdl.com 416 010
mytologi.nu 416 011
drsoroush.com 416 012
engsubbed.com 416 013
readforgreed.com 416 014
opinionpl.us 416 015
gold-porn-tube.net 416 016
hr-secrets.com 416 017
myangelcardreadings.com 416 018
file-speedy.com 416 019

DOMAINS WITH THE NEAREST RANK BY TLD .com

Domain Rank
umameshi.com 416 005
hothyips.com 416 007
directdl.com 416 010
drsoroush.com 416 012
engsubbed.com 416 013
readforgreed.com 416 014
hr-secrets.com 416 017
myangelcardreadings.com 416 018
file-speedy.com 416 019
salighebazar.com 416 020
adamrafferty.com 416 021